createdAt,value
2023-04-16T00:01:28.816Z,9.20
2023-04-16T00:03:57.548Z,9.30
2023-04-16T00:06:26.431Z,9.20
2023-04-16T00:08:56.076Z,9.20
2023-04-16T00:11:24.548Z,9.30
2023-04-16T00:13:53.443Z,9.30
2023-04-16T00:16:22.019Z,9.40
2023-04-16T00:18:50.386Z,9.40
2023-04-16T00:21:18.850Z,9.40
2023-04-16T00:23:47.235Z,9.40
2023-04-16T00:26:17.248Z,9.30
2023-04-16T00:28:45.663Z,9.30
2023-04-16T00:31:14.174Z,9.40
2023-04-16T00:33:42.699Z,9.30
2023-04-16T00:36:11.819Z,9.30
2023-04-16T00:38:40.584Z,9.40
2023-04-16T00:41:08.987Z,9.40
2023-04-16T00:43:38.624Z,9.30
2023-04-16T00:46:08.180Z,9.30
2023-04-16T00:48:37.398Z,9.30
2023-04-16T00:51:07.849Z,9.30
2023-04-16T00:53:36.813Z,9.30
2023-04-16T00:56:06.675Z,9.30
2023-04-16T00:58:36.257Z,9.20
2023-04-16T01:01:06.649Z,9.20
2023-04-16T01:03:39.846Z,9.20
2023-04-16T01:06:08.724Z,9.20
2023-04-16T01:08:37.383Z,9.20
2023-04-16T01:11:06.370Z,9.30
2023-04-16T01:13:39.095Z,9.30
2023-04-16T01:16:11.725Z,9.20
2023-04-16T01:18:40.455Z,9.20
2023-04-16T01:21:10.051Z,9.20
2023-04-16T01:23:38.466Z,9.20
2023-04-16T01:26:07.401Z,9.10
2023-04-16T01:28:36.440Z,9.10
2023-04-16T01:31:05.020Z,9.20
2023-04-16T01:33:33.472Z,9.30
2023-04-16T01:36:02.011Z,9.20
2023-04-16T01:38:31.772Z,9.30
2023-04-16T01:41:00.612Z,9.30
2023-04-16T01:43:29.155Z,9.20
2023-04-16T01:46:12.977Z,9.10
2023-04-16T01:48:41.530Z,9.20
2023-04-16T01:51:10.084Z,9.20
2023-04-16T01:53:40.049Z,9.20
2023-04-16T01:56:08.848Z,9.10
2023-04-16T01:58:37.302Z,9.10
2023-04-16T02:01:06.131Z,9.00
2023-04-16T02:03:34.975Z,9.00
2023-04-16T02:06:03.933Z,9.10
2023-04-16T02:08:32.428Z,8.90
2023-04-16T02:11:02.660Z,8.80
2023-04-16T02:13:31.032Z,8.90
2023-04-16T02:15:59.558Z,8.90
2023-04-16T02:18:28.068Z,8.90
2023-04-16T02:20:58.638Z,9.00
2023-04-16T02:23:27.066Z,9.00
2023-04-16T02:26:05.277Z,9.10
2023-04-16T02:28:33.549Z,9.00
2023-04-16T02:31:01.953Z,9.00
2023-04-16T02:33:31.974Z,9.00
2023-04-16T02:36:00.902Z,9.00
2023-04-16T02:38:29.278Z,9.00
2023-04-16T02:40:57.665Z,9.10
2023-04-16T02:43:27.681Z,9.20
2023-04-16T02:45:56.618Z,9.00
2023-04-16T02:48:25.139Z,8.90
2023-04-16T02:50:53.523Z,8.80
2023-04-16T02:53:21.933Z,8.90
2023-04-16T02:55:53.777Z,8.80
2023-04-16T02:58:22.612Z,8.80
2023-04-16T03:00:52.786Z,8.90
2023-04-16T03:03:21.916Z,9.00
2023-04-16T03:05:50.305Z,8.90
2023-04-16T03:08:19.034Z,8.80
2023-04-16T03:10:47.630Z,8.80
2023-04-16T03:13:16.230Z,8.90
2023-04-16T03:15:51.321Z,8.80
2023-04-16T03:18:20.303Z,8.80
2023-04-16T03:20:53.136Z,8.80
2023-04-16T03:23:21.771Z,8.80
2023-04-16T03:25:50.369Z,8.90
2023-04-16T03:28:19.015Z,8.90
2023-04-16T03:30:53.879Z,9.00
2023-04-16T03:33:22.863Z,8.90
2023-04-16T03:35:57.751Z,8.90
2023-04-16T03:38:26.687Z,8.90
2023-04-16T03:40:55.153Z,8.80
2023-04-16T03:43:23.628Z,8.90
2023-04-16T03:45:53.227Z,8.90
2023-04-16T03:48:21.914Z,8.90
2023-04-16T03:50:50.371Z,8.80
2023-04-16T03:53:18.901Z,8.90
2023-04-16T03:55:50.574Z,8.80
2023-04-16T03:58:19.390Z,8.80
2023-04-16T04:00:47.924Z,8.70
2023-04-16T04:03:18.568Z,8.80
2023-04-16T04:05:47.437Z,8.70
2023-04-16T04:08:16.202Z,8.70
2023-04-16T04:10:45.866Z,8.70
2023-04-16T04:13:14.653Z,8.70
2023-04-16T04:15:42.938Z,8.60
2023-04-16T04:18:11.483Z,8.60
2023-04-16T04:20:42.638Z,8.70
2023-04-16T04:23:11.012Z,8.70
2023-04-16T04:25:39.558Z,8.70
2023-04-16T04:28:08.331Z,8.70
2023-04-16T04:30:36.964Z,8.70
2023-04-16T04:33:05.585Z,8.70
2023-04-16T04:35:34.196Z,8.80
2023-04-16T04:38:04.835Z,8.80
2023-04-16T04:40:33.199Z,8.70
2023-04-16T04:43:01.777Z,8.80
2023-04-16T04:45:31.937Z,8.80
2023-04-16T04:48:01.011Z,8.80
2023-04-16T04:50:29.534Z,8.70
2023-04-16T04:52:58.055Z,8.70
2023-04-16T04:55:27.670Z,8.70
2023-04-16T04:57:56.290Z,8.80
2023-04-16T05:00:24.935Z,8.90
2023-04-16T05:02:53.474Z,8.80
2023-04-16T05:05:22.097Z,8.70
2023-04-16T05:07:50.712Z,8.70
2023-04-16T05:10:19.157Z,8.70
2023-04-16T05:12:49.581Z,8.80
2023-04-16T05:15:18.266Z,8.80
2023-04-16T05:17:46.980Z,8.80
2023-04-16T05:20:15.476Z,8.80
2023-04-16T05:22:43.947Z,8.80
2023-04-16T05:25:12.382Z,8.80
2023-04-16T05:27:40.771Z,8.90
2023-04-16T05:30:11.263Z,8.90
2023-04-16T05:32:41.164Z,8.80
2023-04-16T05:35:10.299Z,8.80
2023-04-16T05:37:38.555Z,8.90
2023-04-16T05:40:08.018Z,8.90
2023-04-16T05:42:36.485Z,8.90
2023-04-16T05:45:05.538Z,8.90
2023-04-16T05:47:35.584Z,9.00
2023-04-16T05:50:04.315Z,9.00
2023-04-16T05:52:32.786Z,9.00
2023-04-16T05:55:01.968Z,9.00
2023-04-16T05:57:31.320Z,8.90
2023-04-16T05:59:59.622Z,9.00
2023-04-16T06:02:28.188Z,9.10
2023-04-16T06:04:57.954Z,9.10
2023-04-16T06:07:26.677Z,9.10
2023-04-16T06:09:55.109Z,9.10
2023-04-16T06:12:23.456Z,9.20
2023-04-16T06:14:51.945Z,9.20
2023-04-16T06:17:20.507Z,9.20
2023-04-16T06:19:48.988Z,9.20
2023-04-16T06:22:18.957Z,9.30
2023-04-16T06:24:47.353Z,9.40
2023-04-16T06:27:16.084Z,9.30
2023-04-16T06:29:44.552Z,9.20
2023-04-16T06:32:13.144Z,9.40
2023-04-16T06:34:41.566Z,9.40
2023-04-16T06:37:10.848Z,9.30
2023-04-16T06:39:40.778Z,9.30
2023-04-16T06:42:09.240Z,9.40
2023-04-16T06:44:37.828Z,9.50
2023-04-16T06:47:06.400Z,9.60
2023-04-16T06:49:34.907Z,9.70
2023-04-16T06:52:05.695Z,9.50
2023-04-16T06:54:34.595Z,9.60
2023-04-16T06:57:04.931Z,9.70
2023-04-16T06:59:33.312Z,9.70
2023-04-16T07:02:02.079Z,9.80
2023-04-16T07:04:31.133Z,9.70
2023-04-16T07:06:59.775Z,9.60
2023-04-16T07:09:28.383Z,9.70
2023-04-16T07:11:56.781Z,9.80
2023-04-16T07:14:26.457Z,9.90
2023-04-16T07:16:54.958Z,9.90
2023-04-16T07:19:23.498Z,9.90
2023-04-16T07:21:51.971Z,9.90
2023-04-16T07:24:20.765Z,9.80
2023-04-16T07:26:49.165Z,9.80
2023-04-16T07:29:17.596Z,9.90
2023-04-16T07:31:47.850Z,10.00
2023-04-16T07:34:16.381Z,10.00
2023-04-16T07:36:44.771Z,9.80
2023-04-16T07:39:13.323Z,10.00
2023-04-16T07:41:41.996Z,10.30
2023-04-16T07:44:11.334Z,10.10
2023-04-16T07:46:46.839Z,10.30
2023-04-16T07:49:17.410Z,10.50
2023-04-16T07:51:46.321Z,10.80
2023-04-16T07:54:14.754Z,10.30
2023-04-16T07:56:43.243Z,10.40
2023-04-16T08:01:42.943Z,10.80
2023-04-16T08:04:11.600Z,10.70
2023-04-16T08:06:41.719Z,11.10
2023-04-16T08:09:10.281Z,10.90
2023-04-16T08:11:38.972Z,11.30
2023-04-16T08:14:07.414Z,10.80
2023-04-16T08:16:35.932Z,11.20
2023-04-16T08:19:04.467Z,10.90
2023-04-16T08:21:32.902Z,10.60
2023-04-16T08:24:02.694Z,10.90
2023-04-16T08:26:31.449Z,11.10
2023-04-16T08:28:59.973Z,11.50
2023-04-16T08:31:28.491Z,11.20
2023-04-16T08:33:57.002Z,11.00
2023-04-16T08:36:25.681Z,11.00
2023-04-16T08:38:54.078Z,11.10
2023-04-16T08:41:25.947Z,10.80
2023-04-16T08:43:56.788Z,11.30
2023-04-16T08:46:27.204Z,11.10
2023-04-16T08:48:56.898Z,10.90
2023-04-16T08:51:27.440Z,11.20
2023-04-16T08:54:01.162Z,11.40
2023-04-16T08:56:32.929Z,11.30
2023-04-16T08:59:05.227Z,11.00
2023-04-16T09:01:34.416Z,10.90
2023-04-16T09:04:03.901Z,11.10
2023-04-16T09:06:34.557Z,10.90
2023-04-16T09:09:04.788Z,11.10
2023-04-16T09:11:35.627Z,11.30
2023-04-16T09:14:04.483Z,11.20
2023-04-16T09:16:35.530Z,11.30
2023-04-16T09:19:04.119Z,11.00
2023-04-16T09:21:33.114Z,10.90
2023-04-16T09:24:02.812Z,11.10
2023-04-16T09:26:32.375Z,11.40
2023-04-16T09:29:02.152Z,11.30
2023-04-16T09:31:30.786Z,11.30
2023-04-16T09:34:06.683Z,11.40
2023-04-16T09:36:35.632Z,11.20
2023-04-16T09:39:04.996Z,11.10
2023-04-16T09:41:38.318Z,11.20
2023-04-16T09:44:08.205Z,11.30
2023-04-16T09:46:38.163Z,11.30
2023-04-16T09:49:11.124Z,12.20
2023-04-16T09:51:40.300Z,11.50
2023-04-16T09:54:09.207Z,11.90
2023-04-16T09:56:41.869Z,11.90
2023-04-16T09:59:18.520Z,11.30
2023-04-16T10:01:49.435Z,11.30
2023-04-16T10:04:18.238Z,11.40
2023-04-16T10:07:03.585Z,11.20
2023-04-16T10:09:33.654Z,11.70
2023-04-16T10:12:02.393Z,11.50
2023-04-16T10:14:32.129Z,11.60
2023-04-16T10:17:00.872Z,11.60
2023-04-16T10:19:31.610Z,11.60
2023-04-16T10:22:00.710Z,11.90
2023-04-16T10:24:30.143Z,11.90
2023-04-16T10:26:59.241Z,11.70
2023-04-16T10:29:29.448Z,11.70
2023-04-16T10:31:59.904Z,11.50
2023-04-16T10:34:29.063Z,11.80
2023-04-16T10:36:57.951Z,11.70
2023-04-16T10:39:28.932Z,11.90
2023-04-16T10:42:09.952Z,12.40
2023-04-16T10:44:38.496Z,11.50
2023-04-16T10:47:13.966Z,11.50
2023-04-16T10:49:43.828Z,11.70
2023-04-16T10:52:13.588Z,11.30
2023-04-16T10:54:42.248Z,11.40
2023-04-16T10:57:12.331Z,12.00
2023-04-16T10:59:43.071Z,12.10
2023-04-16T11:02:15.190Z,11.70
2023-04-16T11:04:45.085Z,11.80
2023-04-16T11:07:19.203Z,12.10
2023-04-16T11:09:52.163Z,12.50
2023-04-16T11:12:21.536Z,12.20
2023-04-16T11:14:51.473Z,12.20
2023-04-16T11:17:22.343Z,12.00
2023-04-16T11:19:53.545Z,12.40
2023-04-16T11:22:22.576Z,12.00
2023-04-16T11:24:56.434Z,11.80
2023-04-16T11:27:25.377Z,11.70
2023-04-16T11:30:04.627Z,12.10
2023-04-16T11:32:34.945Z,12.20
2023-04-16T11:35:05.272Z,11.90
2023-04-16T11:37:35.100Z,12.10
2023-04-16T11:40:06.592Z,12.40
2023-04-16T11:42:37.295Z,12.00
2023-04-16T11:45:06.536Z,12.50
2023-04-16T11:47:45.908Z,12.50
2023-04-16T11:50:18.849Z,12.30
2023-04-16T11:52:47.511Z,12.20
2023-04-16T11:55:16.065Z,12.40
2023-04-16T11:57:45.980Z,12.80
2023-04-16T12:00:15.657Z,12.30
2023-04-16T12:02:46.528Z,12.30
2023-04-16T12:05:32.706Z,12.40
2023-04-16T12:08:02.593Z,12.30
2023-04-16T12:10:31.407Z,12.20
2023-04-16T12:13:13.060Z,12.30
2023-04-16T12:15:49.128Z,12.20
2023-04-16T12:18:20.301Z,12.60
2023-04-16T12:20:48.968Z,12.70
2023-04-16T12:23:27.614Z,12.60
2023-04-16T12:25:56.499Z,12.30
2023-04-16T12:28:32.192Z,12.20
2023-04-16T12:31:00.772Z,12.20
2023-04-16T12:33:30.598Z,12.30
2023-04-16T12:35:59.347Z,12.70
2023-04-16T12:38:28.656Z,12.30
2023-04-16T12:40:58.308Z,12.50
2023-04-16T12:43:27.083Z,12.30
2023-04-16T12:45:56.258Z,12.50
2023-04-16T12:48:24.633Z,12.40
2023-04-16T12:50:56.485Z,12.30
2023-04-16T12:53:24.977Z,12.70
2023-04-16T12:55:53.335Z,12.40
2023-04-16T12:58:21.837Z,12.10
2023-04-16T13:00:50.511Z,12.20
2023-04-16T13:03:20.912Z,12.40
2023-04-16T13:05:49.644Z,12.60
2023-04-16T13:08:19.589Z,12.10
2023-04-16T13:10:48.045Z,12.20
2023-04-16T13:13:16.549Z,12.20
2023-04-16T13:15:45.215Z,12.40
2023-04-16T13:18:13.931Z,12.30
2023-04-16T13:20:42.360Z,12.40
2023-04-16T13:23:11.325Z,12.50
2023-04-16T13:25:40.916Z,12.50
2023-04-16T13:28:09.498Z,12.50
2023-04-16T13:30:37.930Z,12.50
2023-04-16T13:33:06.479Z,12.50
2023-04-16T13:35:34.919Z,12.30
2023-04-16T13:38:03.323Z,12.50
2023-04-16T13:40:31.924Z,12.40
2023-04-16T13:43:01.774Z,12.50
2023-04-16T13:45:30.327Z,12.40
2023-04-16T13:47:59.038Z,12.30
2023-04-16T13:50:27.579Z,12.30
2023-04-16T13:52:56.439Z,12.50
2023-04-16T13:55:24.840Z,12.40
2023-04-16T13:57:53.510Z,12.30
2023-04-16T14:00:23.372Z,12.10
2023-04-16T14:02:52.070Z,12.10
2023-04-16T14:05:20.864Z,12.10
2023-04-16T14:07:49.688Z,11.90
2023-04-16T14:10:18.434Z,12.00
2023-04-16T14:12:47.120Z,12.20
2023-04-16T14:15:15.863Z,12.20
2023-04-16T14:17:45.931Z,12.30
2023-04-16T14:20:15.786Z,12.10
2023-04-16T14:22:46.652Z,12.30
2023-04-16T14:25:15.110Z,12.10
2023-04-16T14:27:43.792Z,12.00
2023-04-16T14:30:12.604Z,12.10
2023-04-16T14:32:41.047Z,12.00
2023-04-16T14:35:11.571Z,12.00
2023-04-16T14:37:40.877Z,12.10
2023-04-16T14:40:10.981Z,12.10
2023-04-16T14:42:39.824Z,12.20
2023-04-16T14:45:09.211Z,12.20
2023-04-16T14:47:46.068Z,12.20
2023-04-16T14:50:16.184Z,12.60
2023-04-16T14:52:44.602Z,12.40
2023-04-16T14:55:13.048Z,12.30
2023-04-16T14:57:41.656Z,12.00
2023-04-16T15:00:12.272Z,11.90
2023-04-16T15:02:41.106Z,12.20
2023-04-16T15:05:10.890Z,12.20
2023-04-16T15:07:40.984Z,12.10
2023-04-16T15:10:12.702Z,11.90
2023-04-16T15:12:41.338Z,12.00
2023-04-16T15:15:10.633Z,12.10
2023-04-16T15:17:39.395Z,12.00
2023-04-16T15:20:09.452Z,12.10
2023-04-16T15:22:38.145Z,12.00
2023-04-16T15:25:08.868Z,11.90
2023-04-16T15:27:37.881Z,11.70
2023-04-16T15:30:07.356Z,11.90
2023-04-16T15:32:35.896Z,12.10
2023-04-16T15:35:04.929Z,11.90
2023-04-16T15:37:33.432Z,12.00
2023-04-16T15:40:01.897Z,12.00
2023-04-16T15:42:32.807Z,11.90
2023-04-16T15:45:01.598Z,11.80
2023-04-16T15:47:30.743Z,11.50
2023-04-16T15:49:59.172Z,11.70
2023-04-16T15:52:27.616Z,11.90
2023-04-16T15:54:56.666Z,11.80
2023-04-16T15:57:25.409Z,11.80
2023-04-16T16:00:06.363Z,12.20
2023-04-16T16:02:36.087Z,12.00
2023-04-16T16:05:04.983Z,11.50
2023-04-16T16:07:33.790Z,11.50
2023-04-16T16:10:02.244Z,11.40
2023-04-16T16:12:31.296Z,11.60
2023-04-16T16:15:02.223Z,11.60
2023-04-16T16:17:30.747Z,11.50
2023-04-16T16:19:59.709Z,11.60
2023-04-16T16:22:28.564Z,11.60
2023-04-16T16:24:57.789Z,11.50
2023-04-16T16:27:26.435Z,11.30
2023-04-16T16:29:54.878Z,11.40
2023-04-16T16:32:24.689Z,11.70
2023-04-16T16:34:53.201Z,11.60
2023-04-16T16:37:21.850Z,11.70
2023-04-16T16:39:50.565Z,11.60
2023-04-16T16:42:19.126Z,11.60
2023-04-16T16:44:48.997Z,11.60
2023-04-16T16:47:17.505Z,11.60
2023-04-16T16:49:47.306Z,11.80
2023-04-16T16:52:15.820Z,11.60
2023-04-16T16:54:44.330Z,11.70
2023-04-16T16:57:15.362Z,11.40
2023-04-16T16:59:43.740Z,11.40
2023-04-16T17:02:12.182Z,11.40
2023-04-16T17:04:40.636Z,11.50
2023-04-16T17:07:11.128Z,11.50
2023-04-16T17:09:39.892Z,11.40
2023-04-16T17:12:08.712Z,11.10
2023-04-16T17:14:37.165Z,11.40
2023-04-16T17:17:05.799Z,11.50
2023-04-16T17:19:34.323Z,11.70
2023-04-16T17:22:03.707Z,11.50
2023-04-16T17:24:33.453Z,11.30
2023-04-16T17:27:02.421Z,11.30
2023-04-16T17:29:31.061Z,11.30
2023-04-16T17:31:59.601Z,11.20
2023-04-16T17:34:28.121Z,11.40
2023-04-16T17:36:56.690Z,11.60
2023-04-16T17:39:25.116Z,11.50
2023-04-16T17:41:58.528Z,11.70
2023-04-16T17:44:28.090Z,11.70
2023-04-16T17:46:56.719Z,12.00
2023-04-16T17:49:25.381Z,12.00
2023-04-16T17:51:54.711Z,11.80
2023-04-16T17:54:23.143Z,12.80
2023-04-16T17:56:51.846Z,13.00
2023-04-16T17:59:21.501Z,12.30
2023-04-16T18:01:50.554Z,12.20
2023-04-16T18:04:19.560Z,12.10
2023-04-16T18:06:48.608Z,12.00
2023-04-16T18:09:17.029Z,11.80
2023-04-16T18:11:45.444Z,11.80
2023-04-16T18:14:16.889Z,11.60
2023-04-16T18:16:47.874Z,11.70
2023-04-16T18:19:17.230Z,11.50
2023-04-16T18:21:46.024Z,11.40
2023-04-16T18:24:15.478Z,11.10
2023-04-16T18:26:46.675Z,11.30
2023-04-16T18:29:17.057Z,11.20
2023-04-16T18:31:47.673Z,11.10
2023-04-16T18:34:16.274Z,11.20
2023-04-16T18:36:45.048Z,11.10
2023-04-16T18:39:13.565Z,11.20
2023-04-16T18:41:43.657Z,11.10
2023-04-16T18:44:12.629Z,11.10
2023-04-16T18:46:41.470Z,10.90
2023-04-16T18:49:11.410Z,11.00
2023-04-16T18:51:40.141Z,11.00
2023-04-16T18:54:08.628Z,10.80
2023-04-16T18:56:37.413Z,10.90
2023-04-16T18:59:05.822Z,10.80
2023-04-16T19:01:34.232Z,10.80
2023-04-16T19:04:03.428Z,10.80
2023-04-16T19:06:33.642Z,10.70
2023-04-16T19:09:02.318Z,10.70
2023-04-16T19:11:30.772Z,10.60
2023-04-16T19:14:02.033Z,10.70
2023-04-16T19:16:30.716Z,10.60
2023-04-16T19:18:59.143Z,10.50
2023-04-16T19:21:27.543Z,10.70
2023-04-16T19:23:57.476Z,10.70
2023-04-16T19:26:26.726Z,10.50
2023-04-16T19:28:54.978Z,10.50
2023-04-16T19:31:23.434Z,10.50
2023-04-16T19:33:51.686Z,10.50
2023-04-16T19:36:19.929Z,10.40
2023-04-16T19:38:48.512Z,10.30
2023-04-16T19:41:18.268Z,10.30
2023-04-16T19:43:46.706Z,10.20
2023-04-16T19:46:16.929Z,10.30
2023-04-16T19:48:45.316Z,10.20
2023-04-16T19:51:13.771Z,10.20
2023-04-16T19:53:42.220Z,10.10
2023-04-16T19:56:11.027Z,10.10
2023-04-16T19:58:40.753Z,10.10
2023-04-16T20:01:10.686Z,10.10
2023-04-16T20:03:39.539Z,10.10
2023-04-16T20:06:08.226Z,10.10
2023-04-16T20:08:36.609Z,10.00
2023-04-16T20:11:05.026Z,10.00
2023-04-16T20:13:33.493Z,9.90
2023-04-16T20:16:03.425Z,9.90
2023-04-16T20:18:31.906Z,9.90
2023-04-16T20:21:04.956Z,9.80
2023-04-16T20:23:33.314Z,9.80
2023-04-16T20:26:02.218Z,9.70
2023-04-16T20:28:30.652Z,9.60
2023-04-16T20:30:59.206Z,9.60
2023-04-16T20:33:28.749Z,9.60
2023-04-16T20:35:57.643Z,9.60
2023-04-16T20:38:26.097Z,9.60
2023-04-16T20:41:06.248Z,9.50
2023-04-16T20:43:38.556Z,9.60
2023-04-16T20:46:07.608Z,9.60
2023-04-16T20:48:38.587Z,9.50
2023-04-16T20:51:09.470Z,9.50
2023-04-16T20:53:38.314Z,9.40
2023-04-16T20:56:09.052Z,9.40
2023-04-16T20:58:37.592Z,9.40
2023-04-16T21:01:06.172Z,9.30
2023-04-16T21:03:36.224Z,9.40
2023-04-16T21:06:04.998Z,9.30
2023-04-16T21:08:33.422Z,9.30
2023-04-16T21:11:01.897Z,9.20
2023-04-16T21:13:30.502Z,9.20
2023-04-16T21:15:59.310Z,9.20
2023-04-16T21:18:27.752Z,9.20
2023-04-16T21:20:57.783Z,9.10
2023-04-16T21:23:26.256Z,9.10
2023-04-16T21:25:57.247Z,9.10
2023-04-16T21:28:25.840Z,9.10
2023-04-16T21:30:54.324Z,9.10
2023-04-16T21:33:22.766Z,9.10
2023-04-16T21:35:53.421Z,9.00
2023-04-16T21:38:23.306Z,8.90
2023-04-16T21:40:54.048Z,9.00
2023-04-16T21:43:22.810Z,9.00
2023-04-16T21:45:54.544Z,9.00
2023-04-16T21:48:23.168Z,8.90
2023-04-16T21:50:58.079Z,8.90
2023-04-16T21:53:28.093Z,8.80
2023-04-16T21:55:56.797Z,8.80
2023-04-16T21:58:25.847Z,8.80
2023-04-16T22:00:55.421Z,8.80
2023-04-16T22:03:26.656Z,8.70
2023-04-16T22:06:01.271Z,8.80
2023-04-16T22:08:31.485Z,8.80
2023-04-16T22:11:00.164Z,8.80
2023-04-16T22:13:29.947Z,8.70
2023-04-16T22:16:01.322Z,8.70
2023-04-16T22:18:32.917Z,8.70
2023-04-16T22:21:01.641Z,8.70
2023-04-16T22:23:31.355Z,8.70
2023-04-16T22:26:00.061Z,8.70
2023-04-16T22:28:28.616Z,8.70
2023-04-16T22:30:57.699Z,8.70
2023-04-16T22:33:26.236Z,8.70
2023-04-16T22:35:54.806Z,8.70
2023-04-16T22:38:23.214Z,8.70
2023-04-16T22:40:52.887Z,8.80
2023-04-16T22:43:21.252Z,8.80
2023-04-16T22:45:49.725Z,8.80
2023-04-16T22:48:19.035Z,8.80
2023-04-16T22:50:48.463Z,8.90
2023-04-16T22:53:17.277Z,8.90
2023-04-16T22:55:45.665Z,8.90
2023-04-16T22:58:16.743Z,8.90
2023-04-16T23:00:46.192Z,8.90
2023-04-16T23:03:14.703Z,9.00
2023-04-16T23:05:43.195Z,9.00
2023-04-16T23:08:11.921Z,9.10
2023-04-16T23:10:40.448Z,9.10
2023-04-16T23:13:08.828Z,9.20
2023-04-16T23:15:38.643Z,9.20
2023-04-16T23:18:07.706Z,9.30
2023-04-16T23:20:36.234Z,9.40
2023-04-16T23:23:04.673Z,9.30
2023-04-16T23:25:33.096Z,9.30
2023-04-16T23:28:01.770Z,9.30
2023-04-16T23:30:30.198Z,9.30
2023-04-16T23:32:59.855Z,9.30
2023-04-16T23:35:28.528Z,9.40
2023-04-16T23:37:56.935Z,9.40
2023-04-16T23:40:25.693Z,9.30
2023-04-16T23:42:54.225Z,9.30
2023-04-16T23:45:22.898Z,9.20
2023-04-16T23:47:51.905Z,9.30
2023-04-16T23:50:21.612Z,9.40
2023-04-16T23:52:50.024Z,9.40
2023-04-16T23:55:18.273Z,9.50
2023-04-16T23:57:47.010Z,9.40
